sensor_id;sensor_type;location;lat;lon;timestamp;P1;durP1;ratioP1;P2;durP2;ratioP2
42846;SDS011;28495;49.916;14.536;2023-02-22T00:00:17;5.22;;;2.60;;
42846;SDS011;28495;49.916;14.536;2023-02-22T00:11:12;5.57;;;2.65;;
42846;SDS011;28495;49.916;14.536;2023-02-22T00:16:34;7.22;;;2.88;;
42846;SDS011;28495;49.916;14.536;2023-02-22T00:21:55;5.65;;;3.20;;
42846;SDS011;28495;49.916;14.536;2023-02-22T00:27:17;6.82;;;3.33;;
42846;SDS011;28495;49.916;14.536;2023-02-22T00:32:37;5.90;;;3.40;;
42846;SDS011;28495;49.916;14.536;2023-02-22T00:37:59;6.03;;;3.10;;
42846;SDS011;28495;49.916;14.536;2023-02-22T00:43:21;4.25;;;3.08;;
42846;SDS011;28495;49.916;14.536;2023-02-22T00:48:42;4.03;;;2.85;;
42846;SDS011;28495;49.916;14.536;2023-02-22T00:54:04;5.00;;;2.88;;
42846;SDS011;28495;49.916;14.536;2023-02-22T00:59:24;7.07;;;3.85;;
42846;SDS011;28495;49.916;14.536;2023-02-22T01:04:46;8.63;;;3.80;;
42846;SDS011;28495;49.916;14.536;2023-02-22T01:10:07;6.13;;;3.30;;
42846;SDS011;28495;49.916;14.536;2023-02-22T01:15:30;4.55;;;2.40;;
42846;SDS011;28495;49.916;14.536;2023-02-22T01:20:51;2.97;;;2.08;;
42846;SDS011;28495;49.916;14.536;2023-02-22T01:26:12;2.78;;;2.00;;
42846;SDS011;28495;49.916;14.536;2023-02-22T01:31:32;4.18;;;2.30;;
42846;SDS011;28495;49.916;14.536;2023-02-22T01:36:53;4.88;;;2.90;;
42846;SDS011;28495;49.916;14.536;2023-02-22T01:42:14;4.60;;;2.60;;
42846;SDS011;28495;49.916;14.536;2023-02-22T01:47:35;3.17;;;2.20;;
42846;SDS011;28495;49.916;14.536;2023-02-22T01:52:58;3.08;;;1.92;;
42846;SDS011;28495;49.916;14.536;2023-02-22T01:58:19;2.83;;;2.10;;
42846;SDS011;28495;49.916;14.536;2023-02-22T02:03:43;5.57;;;2.28;;
42846;SDS011;28495;49.916;14.536;2023-02-22T02:15:23;4.55;;;1.80;;
42846;SDS011;28495;49.916;14.536;2023-02-22T02:33:11;7.03;;;4.35;;
42846;SDS011;28495;49.916;14.536;2023-02-22T02:38:31;7.22;;;4.53;;
42846;SDS011;28495;49.916;14.536;2023-02-22T02:49:36;7.07;;;4.13;;
42846;SDS011;28495;49.916;14.536;2023-02-22T02:55:04;7.10;;;4.43;;
42846;SDS011;28495;49.916;14.536;2023-02-22T03:00:27;6.13;;;4.00;;
42846;SDS011;28495;49.916;14.536;2023-02-22T03:11:34;7.60;;;4.18;;
42846;SDS011;28495;49.916;14.536;2023-02-22T03:17:27;4.70;;;3.38;;
42846;SDS011;28495;49.916;14.536;2023-02-22T03:28:44;4.50;;;3.03;;
42846;SDS011;28495;49.916;14.536;2023-02-22T03:34:12;6.55;;;2.88;;
42846;SDS011;28495;49.916;14.536;2023-02-22T03:39:39;5.88;;;3.17;;
42846;SDS011;28495;49.916;14.536;2023-02-22T03:45:03;4.05;;;2.45;;
42846;SDS011;28495;49.916;14.536;2023-02-22T03:50:32;3.58;;;2.47;;
42846;SDS011;28495;49.916;14.536;2023-02-22T03:55:56;6.70;;;4.10;;
42846;SDS011;28495;49.916;14.536;2023-02-22T04:01:20;6.60;;;3.63;;
42846;SDS011;28495;49.916;14.536;2023-02-22T04:06:43;5.93;;;3.00;;
42846;SDS011;28495;49.916;14.536;2023-02-22T04:12:06;5.90;;;3.60;;
42846;SDS011;28495;49.916;14.536;2023-02-22T04:17:43;6.57;;;2.80;;
42846;SDS011;28495;49.916;14.536;2023-02-22T04:23:06;5.80;;;3.60;;
42846;SDS011;28495;49.916;14.536;2023-02-22T04:28:30;7.38;;;4.07;;
42846;SDS011;28495;49.916;14.536;2023-02-22T04:34:07;5.25;;;4.05;;
42846;SDS011;28495;49.916;14.536;2023-02-22T04:39:32;5.43;;;3.40;;
42846;SDS011;28495;49.916;14.536;2023-02-22T04:44:53;5.43;;;3.38;;
42846;SDS011;28495;49.916;14.536;2023-02-22T04:50:15;4.45;;;2.55;;
42846;SDS011;28495;49.916;14.536;2023-02-22T04:55:36;6.05;;;2.95;;
42846;SDS011;28495;49.916;14.536;2023-02-22T05:00:57;3.72;;;2.42;;
42846;SDS011;28495;49.916;14.536;2023-02-22T05:06:19;4.32;;;2.67;;
42846;SDS011;28495;49.916;14.536;2023-02-22T05:11:40;4.60;;;3.35;;
42846;SDS011;28495;49.916;14.536;2023-02-22T05:17:01;4.15;;;2.88;;
42846;SDS011;28495;49.916;14.536;2023-02-22T05:22:22;5.20;;;3.50;;
42846;SDS011;28495;49.916;14.536;2023-02-22T05:27:43;6.22;;;4.18;;
42846;SDS011;28495;49.916;14.536;2023-02-22T05:33:04;5.75;;;3.53;;
42846;SDS011;28495;49.916;14.536;2023-02-22T05:38:25;5.10;;;3.78;;
42846;SDS011;28495;49.916;14.536;2023-02-22T05:43:46;8.30;;;4.28;;
42846;SDS011;28495;49.916;14.536;2023-02-22T05:49:07;6.32;;;3.80;;
42846;SDS011;28495;49.916;14.536;2023-02-22T05:54:28;6.43;;;3.95;;
42846;SDS011;28495;49.916;14.536;2023-02-22T05:59:49;8.15;;;3.58;;
42846;SDS011;28495;49.916;14.536;2023-02-22T06:05:10;6.22;;;4.68;;
42846;SDS011;28495;49.916;14.536;2023-02-22T06:10:30;7.40;;;4.10;;
42846;SDS011;28495;49.916;14.536;2023-02-22T06:15:52;6.78;;;4.00;;
42846;SDS011;28495;49.916;14.536;2023-02-22T06:21:12;10.57;;;4.68;;
42846;SDS011;28495;49.916;14.536;2023-02-22T06:26:34;7.78;;;3.97;;
42846;SDS011;28495;49.916;14.536;2023-02-22T06:31:57;8.15;;;4.95;;
42846;SDS011;28495;49.916;14.536;2023-02-22T06:37:18;9.10;;;4.35;;
42846;SDS011;28495;49.916;14.536;2023-02-22T06:42:39;10.55;;;5.65;;
42846;SDS011;28495;49.916;14.536;2023-02-22T06:48:00;21.38;;;12.05;;
42846;SDS011;28495;49.916;14.536;2023-02-22T06:53:21;18.45;;;10.95;;
42846;SDS011;28495;49.916;14.536;2023-02-22T06:58:42;20.42;;;12.25;;
42846;SDS011;28495;49.916;14.536;2023-02-22T07:04:03;20.50;;;9.35;;
42846;SDS011;28495;49.916;14.536;2023-02-22T07:09:23;17.80;;;9.45;;
42846;SDS011;28495;49.916;14.536;2023-02-22T07:14:44;15.60;;;8.02;;
42846;SDS011;28495;49.916;14.536;2023-02-22T07:20:05;14.18;;;7.60;;
42846;SDS011;28495;49.916;14.536;2023-02-22T07:25:27;18.63;;;10.43;;
42846;SDS011;28495;49.916;14.536;2023-02-22T07:30:47;11.73;;;7.13;;
42846;SDS011;28495;49.916;14.536;2023-02-22T07:36:08;10.95;;;6.68;;
42846;SDS011;28495;49.916;14.536;2023-02-22T07:41:29;10.18;;;5.88;;
42846;SDS011;28495;49.916;14.536;2023-02-22T07:46:49;10.80;;;6.65;;
42846;SDS011;28495;49.916;14.536;2023-02-22T07:52:10;11.15;;;6.55;;
42846;SDS011;28495;49.916;14.536;2023-02-22T07:57:31;10.75;;;6.13;;
42846;SDS011;28495;49.916;14.536;2023-02-22T08:02:52;10.35;;;5.80;;
42846;SDS011;28495;49.916;14.536;2023-02-22T08:08:14;8.25;;;5.55;;
42846;SDS011;28495;49.916;14.536;2023-02-22T08:13:38;10.05;;;6.43;;
42846;SDS011;28495;49.916;14.536;2023-02-22T08:18:59;11.63;;;7.85;;
42846;SDS011;28495;49.916;14.536;2023-02-22T08:24:20;12.32;;;6.88;;
42846;SDS011;28495;49.916;14.536;2023-02-22T08:29:41;10.45;;;6.75;;
42846;SDS011;28495;49.916;14.536;2023-02-22T08:35:01;10.55;;;6.80;;
42846;SDS011;28495;49.916;14.536;2023-02-22T08:40:23;12.73;;;8.32;;
42846;SDS011;28495;49.916;14.536;2023-02-22T08:45:47;11.35;;;6.75;;
42846;SDS011;28495;49.916;14.536;2023-02-22T08:51:08;12.60;;;7.38;;
42846;SDS011;28495;49.916;14.536;2023-02-22T08:56:29;9.98;;;5.93;;
42846;SDS011;28495;49.916;14.536;2023-02-22T09:01:50;14.13;;;6.05;;
42846;SDS011;28495;49.916;14.536;2023-02-22T09:07:11;10.25;;;5.90;;
42846;SDS011;28495;49.916;14.536;2023-02-22T09:12:32;12.40;;;7.20;;
42846;SDS011;28495;49.916;14.536;2023-02-22T09:17:53;11.32;;;6.75;;
42846;SDS011;28495;49.916;14.536;2023-02-22T09:23:13;11.20;;;6.82;;
42846;SDS011;28495;49.916;14.536;2023-02-22T09:28:34;12.45;;;6.15;;
42846;SDS011;28495;49.916;14.536;2023-02-22T09:33:55;11.95;;;5.80;;
42846;SDS011;28495;49.916;14.536;2023-02-22T09:39:17;8.50;;;5.80;;
42846;SDS011;28495;49.916;14.536;2023-02-22T09:50:09;9.48;;;5.43;;
42846;SDS011;28495;49.916;14.536;2023-02-22T09:55:36;11.20;;;5.85;;
42846;SDS011;28495;49.916;14.536;2023-02-22T10:01:08;9.68;;;4.40;;
42846;SDS011;28495;49.916;14.536;2023-02-22T10:06:38;7.75;;;5.28;;
42846;SDS011;28495;49.916;14.536;2023-02-22T10:12:05;8.63;;;5.32;;
42846;SDS011;28495;49.916;14.536;2023-02-22T10:28:53;9.45;;;4.85;;
42846;SDS011;28495;49.916;14.536;2023-02-22T10:34:25;7.95;;;4.90;;
42846;SDS011;28495;49.916;14.536;2023-02-22T10:39:47;7.97;;;5.28;;
42846;SDS011;28495;49.916;14.536;2023-02-22T10:45:18;5.85;;;4.07;;
42846;SDS011;28495;49.916;14.536;2023-02-22T10:50:43;7.65;;;4.20;;
42846;SDS011;28495;49.916;14.536;2023-02-22T11:12:25;5.60;;;3.25;;
42846;SDS011;28495;49.916;14.536;2023-02-22T11:17:52;4.97;;;3.17;;
42846;SDS011;28495;49.916;14.536;2023-02-22T11:23:18;7.28;;;3.85;;
42846;SDS011;28495;49.916;14.536;2023-02-22T11:28:43;5.35;;;3.47;;
42846;SDS011;28495;49.916;14.536;2023-02-22T11:45:59;4.17;;;3.17;;
42846;SDS011;28495;49.916;14.536;2023-02-22T12:20:08;4.63;;;3.13;;
42846;SDS011;28495;49.916;14.536;2023-02-22T12:26:03;4.53;;;2.25;;
42846;SDS011;28495;49.916;14.536;2023-02-22T12:32:10;4.45;;;3.13;;
42846;SDS011;28495;49.916;14.536;2023-02-22T12:37:27;7.07;;;3.42;;
42846;SDS011;28495;49.916;14.536;2023-02-22T12:43:03;7.25;;;2.63;;
42846;SDS011;28495;49.916;14.536;2023-02-22T12:54:08;3.80;;;2.30;;
42846;SDS011;28495;49.916;14.536;2023-02-22T12:59:49;6.35;;;3.05;;
42846;SDS011;28495;49.916;14.536;2023-02-22T13:05:14;2.03;;;1.20;;
42846;SDS011;28495;49.916;14.536;2023-02-22T13:10:55;2.55;;;1.15;;
42846;SDS011;28495;49.916;14.536;2023-02-22T13:16:25;1.63;;;1.05;;
42846;SDS011;28495;49.916;14.536;2023-02-22T13:22:44;1.13;;;0.85;;
42846;SDS011;28495;49.916;14.536;2023-02-22T13:27:47;1.92;;;1.20;;
42846;SDS011;28495;49.916;14.536;2023-02-22T13:56:08;2.38;;;1.73;;
42846;SDS011;28495;49.916;14.536;2023-02-22T14:07:04;2.33;;;1.60;;
42846;SDS011;28495;49.916;14.536;2023-02-22T14:12:48;2.08;;;1.70;;
42846;SDS011;28495;49.916;14.536;2023-02-22T14:18:14;3.95;;;1.85;;
42846;SDS011;28495;49.916;14.536;2023-02-22T14:23:37;1.73;;;1.20;;
42846;SDS011;28495;49.916;14.536;2023-02-22T14:29:00;3.35;;;1.40;;
42846;SDS011;28495;49.916;14.536;2023-02-22T14:34:52;2.25;;;1.70;;
42846;SDS011;28495;49.916;14.536;2023-02-22T14:40:21;2.28;;;1.83;;
42846;SDS011;28495;49.916;14.536;2023-02-22T14:45:57;2.85;;;1.85;;
42846;SDS011;28495;49.916;14.536;2023-02-22T14:51:28;3.00;;;2.00;;
42846;SDS011;28495;49.916;14.536;2023-02-22T14:57:03;6.50;;;3.85;;
42846;SDS011;28495;49.916;14.536;2023-02-22T15:02:38;6.63;;;4.45;;
42846;SDS011;28495;49.916;14.536;2023-02-22T15:08:05;5.82;;;3.83;;
42846;SDS011;28495;49.916;14.536;2023-02-22T15:13:27;5.50;;;3.72;;
42846;SDS011;28495;49.916;14.536;2023-02-22T15:18:53;7.97;;;4.85;;
42846;SDS011;28495;49.916;14.536;2023-02-22T15:24:18;7.55;;;3.92;;
42846;SDS011;28495;49.916;14.536;2023-02-22T15:29:43;8.25;;;5.13;;
42846;SDS011;28495;49.916;14.536;2023-02-22T15:35:28;8.93;;;4.78;;
42846;SDS011;28495;49.916;14.536;2023-02-22T15:40:57;9.65;;;5.57;;
42846;SDS011;28495;49.916;14.536;2023-02-22T15:46:22;9.48;;;6.03;;
42846;SDS011;28495;49.916;14.536;2023-02-22T15:51:43;10.23;;;6.10;;
42846;SDS011;28495;49.916;14.536;2023-02-22T15:57:08;9.25;;;5.43;;
42846;SDS011;28495;49.916;14.536;2023-02-22T16:02:36;9.48;;;5.72;;
42846;SDS011;28495;49.916;14.536;2023-02-22T16:07:58;9.43;;;6.30;;
42846;SDS011;28495;49.916;14.536;2023-02-22T16:18:51;10.90;;;5.55;;
42846;SDS011;28495;49.916;14.536;2023-02-22T16:24:23;10.07;;;6.95;;
42846;SDS011;28495;49.916;14.536;2023-02-22T16:30:16;12.88;;;6.47;;
42846;SDS011;28495;49.916;14.536;2023-02-22T16:35:47;15.30;;;6.78;;
42846;SDS011;28495;49.916;14.536;2023-02-22T16:41:11;12.48;;;6.35;;
42846;SDS011;28495;49.916;14.536;2023-02-22T16:46:35;14.48;;;7.20;;
42846;SDS011;28495;49.916;14.536;2023-02-22T16:52:00;13.52;;;7.85;;
42846;SDS011;28495;49.916;14.536;2023-02-22T16:57:26;18.58;;;8.70;;
42846;SDS011;28495;49.916;14.536;2023-02-22T17:02:52;15.02;;;8.48;;
42846;SDS011;28495;49.916;14.536;2023-02-22T17:08:13;16.63;;;8.70;;
42846;SDS011;28495;49.916;14.536;2023-02-22T17:13:35;14.27;;;8.52;;
42846;SDS011;28495;49.916;14.536;2023-02-22T17:18:58;21.55;;;11.38;;
42846;SDS011;28495;49.916;14.536;2023-02-22T17:24:20;23.33;;;11.13;;
42846;SDS011;28495;49.916;14.536;2023-02-22T17:29:43;17.48;;;9.70;;
42846;SDS011;28495;49.916;14.536;2023-02-22T17:35:04;20.25;;;11.98;;
42846;SDS011;28495;49.916;14.536;2023-02-22T17:40:26;20.55;;;11.77;;
42846;SDS011;28495;49.916;14.536;2023-02-22T17:45:48;17.60;;;10.95;;
42846;SDS011;28495;49.916;14.536;2023-02-22T17:51:09;19.63;;;11.60;;
42846;SDS011;28495;49.916;14.536;2023-02-22T17:56:31;20.98;;;11.98;;
42846;SDS011;28495;49.916;14.536;2023-02-22T18:01:51;17.52;;;9.75;;
42846;SDS011;28495;49.916;14.536;2023-02-22T18:07:12;15.52;;;8.95;;
42846;SDS011;28495;49.916;14.536;2023-02-22T18:12:39;14.40;;;8.10;;
42846;SDS011;28495;49.916;14.536;2023-02-22T18:18:02;18.30;;;10.25;;
42846;SDS011;28495;49.916;14.536;2023-02-22T18:23:24;20.30;;;11.50;;
42846;SDS011;28495;49.916;14.536;2023-02-22T18:28:47;19.25;;;10.38;;
42846;SDS011;28495;49.916;14.536;2023-02-22T18:34:08;17.02;;;10.10;;
42846;SDS011;28495;49.916;14.536;2023-02-22T18:39:32;15.57;;;9.30;;
42846;SDS011;28495;49.916;14.536;2023-02-22T18:45:00;16.50;;;9.70;;
42846;SDS011;28495;49.916;14.536;2023-02-22T18:50:23;13.43;;;8.20;;
42846;SDS011;28495;49.916;14.536;2023-02-22T18:55:44;13.98;;;7.75;;
42846;SDS011;28495;49.916;14.536;2023-02-22T19:01:05;16.25;;;9.40;;
42846;SDS011;28495;49.916;14.536;2023-02-22T19:06:26;17.40;;;9.73;;
42846;SDS011;28495;49.916;14.536;2023-02-22T19:11:47;27.25;;;15.35;;
42846;SDS011;28495;49.916;14.536;2023-02-22T19:17:10;24.88;;;13.57;;
42846;SDS011;28495;49.916;14.536;2023-02-22T19:22:35;26.10;;;13.95;;
42846;SDS011;28495;49.916;14.536;2023-02-22T19:28:00;19.83;;;11.07;;
42846;SDS011;28495;49.916;14.536;2023-02-22T19:33:21;25.10;;;13.68;;
42846;SDS011;28495;49.916;14.536;2023-02-22T19:38:45;21.52;;;12.00;;
42846;SDS011;28495;49.916;14.536;2023-02-22T19:44:06;18.63;;;11.60;;
42846;SDS011;28495;49.916;14.536;2023-02-22T19:49:28;20.23;;;11.55;;
42846;SDS011;28495;49.916;14.536;2023-02-22T19:54:52;25.15;;;11.07;;
42846;SDS011;28495;49.916;14.536;2023-02-22T20:00:14;18.08;;;11.23;;
42846;SDS011;28495;49.916;14.536;2023-02-22T20:05:45;21.33;;;11.73;;
42846;SDS011;28495;49.916;14.536;2023-02-22T20:11:05;16.67;;;9.80;;
42846;SDS011;28495;49.916;14.536;2023-02-22T20:16:27;15.68;;;10.13;;
42846;SDS011;28495;49.916;14.536;2023-02-22T20:21:52;20.92;;;10.85;;
42846;SDS011;28495;49.916;14.536;2023-02-22T20:27:17;19.15;;;11.88;;
42846;SDS011;28495;49.916;14.536;2023-02-22T20:32:38;20.00;;;11.90;;
42846;SDS011;28495;49.916;14.536;2023-02-22T20:37:59;23.02;;;12.90;;
42846;SDS011;28495;49.916;14.536;2023-02-22T20:43:20;19.75;;;11.63;;
42846;SDS011;28495;49.916;14.536;2023-02-22T20:48:43;18.73;;;11.07;;
42846;SDS011;28495;49.916;14.536;2023-02-22T20:54:05;17.00;;;10.85;;
42846;SDS011;28495;49.916;14.536;2023-02-22T20:59:28;21.23;;;12.70;;
42846;SDS011;28495;49.916;14.536;2023-02-22T21:04:49;17.58;;;10.80;;
42846;SDS011;28495;49.916;14.536;2023-02-22T21:10:10;22.58;;;13.45;;
42846;SDS011;28495;49.916;14.536;2023-02-22T21:15:33;19.38;;;11.68;;
42846;SDS011;28495;49.916;14.536;2023-02-22T21:20:55;20.42;;;12.15;;
42846;SDS011;28495;49.916;14.536;2023-02-22T21:26:18;18.20;;;10.55;;
42846;SDS011;28495;49.916;14.536;2023-02-22T21:31:44;18.83;;;11.63;;
42846;SDS011;28495;49.916;14.536;2023-02-22T21:37:05;22.25;;;12.88;;
42846;SDS011;28495;49.916;14.536;2023-02-22T21:42:27;20.35;;;12.73;;
42846;SDS011;28495;49.916;14.536;2023-02-22T21:47:49;23.27;;;13.60;;
42846;SDS011;28495;49.916;14.536;2023-02-22T21:53:13;18.83;;;11.90;;
42846;SDS011;28495;49.916;14.536;2023-02-22T21:58:35;19.77;;;12.05;;
42846;SDS011;28495;49.916;14.536;2023-02-22T22:03:56;19.88;;;12.27;;
42846;SDS011;28495;49.916;14.536;2023-02-22T22:09:19;25.27;;;13.18;;
42846;SDS011;28495;49.916;14.536;2023-02-22T22:14:43;21.55;;;11.38;;
42846;SDS011;28495;49.916;14.536;2023-02-22T22:20:04;17.95;;;10.90;;
42846;SDS011;28495;49.916;14.536;2023-02-22T22:25:26;18.50;;;11.93;;
42846;SDS011;28495;49.916;14.536;2023-02-22T22:30:47;18.67;;;11.80;;
42846;SDS011;28495;49.916;14.536;2023-02-22T22:36:09;21.58;;;11.90;;
42846;SDS011;28495;49.916;14.536;2023-02-22T22:41:32;29.02;;;16.35;;
42846;SDS011;28495;49.916;14.536;2023-02-22T22:46:53;22.80;;;14.32;;
42846;SDS011;28495;49.916;14.536;2023-02-22T22:52:15;18.13;;;11.20;;
42846;SDS011;28495;49.916;14.536;2023-02-22T22:57:38;16.95;;;11.23;;
42846;SDS011;28495;49.916;14.536;2023-02-22T23:02:59;21.55;;;11.82;;
42846;SDS011;28495;49.916;14.536;2023-02-22T23:08:20;26.25;;;13.35;;
42846;SDS011;28495;49.916;14.536;2023-02-22T23:13:48;21.85;;;13.63;;
42846;SDS011;28495;49.916;14.536;2023-02-22T23:19:09;22.35;;;11.60;;
42846;SDS011;28495;49.916;14.536;2023-02-22T23:24:31;28.80;;;15.75;;
42846;SDS011;28495;49.916;14.536;2023-02-22T23:29:59;30.30;;;16.27;;
42846;SDS011;28495;49.916;14.536;2023-02-22T23:35:19;27.02;;;15.57;;
42846;SDS011;28495;49.916;14.536;2023-02-22T23:40:40;27.92;;;15.93;;
42846;SDS011;28495;49.916;14.536;2023-02-22T23:46:04;32.92;;;18.10;;
42846;SDS011;28495;49.916;14.536;2023-02-22T23:51:30;33.65;;;19.02;;
42846;SDS011;28495;49.916;14.536;2023-02-22T23:57:01;26.45;;;14.68;;
